createdAt,value
2019-02-22T00:01:55.031Z,6.59
2019-02-22T00:04:44.410Z,6.58
2019-02-22T00:07:33.532Z,6.61
2019-02-22T00:10:22.731Z,6.66
2019-02-22T00:13:12.728Z,6.63
2019-02-22T00:16:02.108Z,6.65
2019-02-22T00:18:52.159Z,6.71
2019-02-22T00:21:41.320Z,6.67
2019-02-22T00:24:31.060Z,6.69
2019-02-22T00:27:20.360Z,6.63
2019-02-22T00:30:10.438Z,6.65
2019-02-22T00:32:59.648Z,6.58
2019-02-22T00:42:51.835Z,6.56
2019-02-22T00:45:41.384Z,6.48
2019-02-22T00:48:31.086Z,6.54
2019-02-22T00:51:20.548Z,6.36
2019-02-22T00:54:12.943Z,6.31
2019-02-22T00:57:02.403Z,6.18
2019-02-22T00:59:52.343Z,6.23
2019-02-22T01:02:41.586Z,6.31
2019-02-22T01:05:31.644Z,6.16
2019-02-22T01:08:21.313Z,6.20
2019-02-22T01:11:11.244Z,6.18
2019-02-22T01:14:00.651Z,6.19
2019-02-22T01:16:49.992Z,6.11
2019-02-22T01:19:39.166Z,6.14
2019-02-22T01:22:28.845Z,6.13
2019-02-22T01:25:18.333Z,6.17
2019-02-22T01:28:08.731Z,6.14
2019-02-22T01:30:58.775Z,6.05
2019-02-22T01:33:48.371Z,6.02
2019-02-22T01:36:37.771Z,6.05
2019-02-22T01:39:27.401Z,6.07
2019-02-22T01:42:16.843Z,5.99
2019-02-22T01:45:06.439Z,6.11
2019-02-22T01:47:55.683Z,5.96
2019-02-22T01:50:45.433Z,5.83
2019-02-22T01:53:34.673Z,5.87
2019-02-22T01:56:24.728Z,5.79
2019-02-22T01:59:13.904Z,5.77
2019-02-22T02:02:03.733Z,5.80
2019-02-22T02:04:53.468Z,5.81
2019-02-22T02:07:42.948Z,5.85
2019-02-22T02:10:33.347Z,5.83
2019-02-22T02:13:22.520Z,5.85
2019-02-22T02:16:11.688Z,5.83
2019-02-22T02:19:01.151Z,5.90
2019-02-22T02:21:50.403Z,5.97
2019-02-22T02:24:40.543Z,5.94
2019-02-22T02:27:29.822Z,6.00
2019-02-22T02:30:19.484Z,5.90
2019-02-22T02:33:08.927Z,5.86
2019-02-22T02:35:58.122Z,5.80
2019-02-22T02:38:47.582Z,5.81
2019-02-22T02:41:37.294Z,5.83
2019-02-22T02:44:26.910Z,5.86
2019-02-22T02:47:16.070Z,5.94
2019-02-22T02:50:06.271Z,5.96
2019-02-22T02:52:55.440Z,5.99
2019-02-22T02:55:44.844Z,5.98
2019-02-22T02:58:34.090Z,6.07
2019-02-22T03:01:24.240Z,6.15
2019-02-22T03:04:13.678Z,6.01
2019-02-22T03:07:08.007Z,5.97
2019-02-22T03:09:57.249Z,5.90
2019-02-22T03:12:46.834Z,5.90
2019-02-22T03:15:36.085Z,5.87
2019-02-22T03:18:25.726Z,5.87
2019-02-22T03:21:14.879Z,5.80
2019-02-22T03:24:04.568Z,5.75
2019-02-22T03:26:53.907Z,5.87
2019-02-22T03:29:43.645Z,5.92
2019-02-22T03:32:33.584Z,5.88
2019-02-22T03:35:22.755Z,5.80
2019-02-22T03:38:11.895Z,5.68
2019-02-22T03:41:00.789Z,5.73
2019-02-22T03:43:50.459Z,5.82
2019-02-22T03:46:40.530Z,5.78
2019-02-22T03:49:29.921Z,5.87
2019-02-22T03:52:38.560Z,5.83
2019-02-22T03:55:28.072Z,5.78
2019-02-22T03:58:17.631Z,5.84
2019-02-22T04:01:06.989Z,5.73
2019-02-22T04:03:56.574Z,5.75
2019-02-22T04:06:46.126Z,5.74
2019-02-22T04:09:35.391Z,5.63
2019-02-22T04:12:25.106Z,5.63
2019-02-22T04:15:14.526Z,5.62
2019-02-22T04:18:04.108Z,5.73
2019-02-22T04:20:53.699Z,5.78
2019-02-22T04:23:42.941Z,5.70
2019-02-22T04:26:32.813Z,5.62
2019-02-22T04:29:22.467Z,5.65
2019-02-22T04:32:12.008Z,5.73
2019-02-22T04:35:01.451Z,5.51
2019-02-22T04:37:50.927Z,5.45
2019-02-22T04:40:41.118Z,5.44
2019-02-22T04:43:30.620Z,5.49
2019-02-22T04:46:20.267Z,5.24
2019-02-22T04:49:10.172Z,5.42
2019-02-22T04:52:00.003Z,5.43
2019-02-22T04:54:49.363Z,5.47
2019-02-22T04:57:38.484Z,5.44
2019-02-22T05:00:27.991Z,5.43
2019-02-22T05:03:17.719Z,5.51
2019-02-22T05:06:07.320Z,5.52
2019-02-22T05:08:57.281Z,5.46
2019-02-22T05:11:46.622Z,5.57
2019-02-22T05:14:36.559Z,5.54
2019-02-22T05:17:26.330Z,5.62
2019-02-22T05:20:15.991Z,5.72
2019-02-22T05:23:07.525Z,5.75
2019-02-22T05:25:56.322Z,5.69
2019-02-22T05:28:46.070Z,5.68
2019-02-22T05:31:37.706Z,5.69
2019-02-22T05:34:26.891Z,5.56
2019-02-22T05:37:16.704Z,5.41
2019-02-22T05:40:06.498Z,5.43
2019-02-22T05:42:55.914Z,5.59
2019-02-22T05:45:45.445Z,5.65
2019-02-22T05:48:38.680Z,5.61
2019-02-22T05:51:26.566Z,5.67
2019-02-22T05:54:16.217Z,5.74
2019-02-22T05:57:05.586Z,5.99
2019-02-22T05:59:55.249Z,5.69
2019-02-22T06:02:44.495Z,5.58
2019-02-22T06:05:34.185Z,5.51
2019-02-22T06:08:23.707Z,5.81
2019-02-22T06:11:13.625Z,5.65
2019-02-22T06:14:03.022Z,5.76
2019-02-22T06:16:52.881Z,5.73
2019-02-22T06:19:42.190Z,5.59
2019-02-22T06:22:31.720Z,5.47
2019-02-22T06:25:26.146Z,5.52
2019-02-22T06:28:15.824Z,5.56
2019-02-22T06:31:05.526Z,5.77
2019-02-22T06:33:54.740Z,5.64
2019-02-22T06:36:44.333Z,5.61
2019-02-22T06:39:34.410Z,5.62
2019-02-22T06:42:24.245Z,5.40
2019-02-22T06:45:13.608Z,5.37
2019-02-22T06:48:03.135Z,5.41
2019-02-22T06:50:52.809Z,5.32
2019-02-22T06:53:42.031Z,5.36
2019-02-22T06:56:31.437Z,5.43
2019-02-22T06:59:21.068Z,5.25
2019-02-22T07:02:10.984Z,5.37
2019-02-22T07:05:00.571Z,5.47
2019-02-22T07:07:50.189Z,5.46
2019-02-22T07:11:00.155Z,5.52
2019-02-22T07:13:49.625Z,5.60
2019-02-22T07:16:39.305Z,5.61
2019-02-22T07:19:28.800Z,5.68
2019-02-22T07:22:18.402Z,5.46
2019-02-22T07:25:09.487Z,5.57
2019-02-22T07:27:58.619Z,5.40
2019-02-22T07:30:48.552Z,5.48
2019-02-22T07:33:39.698Z,5.64
2019-02-22T07:36:29.193Z,5.78
2019-02-22T07:39:27.293Z,5.80
2019-02-22T07:42:09.622Z,6.00
2019-02-22T07:44:59.096Z,6.03
2019-02-22T07:47:49.345Z,6.07
2019-02-22T07:50:38.673Z,6.11
2019-02-22T07:53:28.161Z,6.16
2019-02-22T07:56:19.218Z,6.26
2019-02-22T07:59:11.274Z,6.23
2019-02-22T08:02:01.136Z,6.36
2019-02-22T08:04:50.684Z,6.39
2019-02-22T08:07:40.639Z,6.50
2019-02-22T08:10:30.517Z,6.56
2019-02-22T08:13:20.309Z,6.53
2019-02-22T08:16:09.860Z,6.66
2019-02-22T08:19:01.795Z,6.70
2019-02-22T08:21:50.558Z,6.77
2019-02-22T08:24:40.319Z,6.78
2019-02-22T08:27:30.124Z,6.85
2019-02-22T08:30:25.948Z,6.88
2019-02-22T08:33:15.397Z,6.98
2019-02-22T08:36:05.341Z,6.98
2019-02-22T08:38:54.478Z,7.01
2019-02-22T08:41:44.341Z,6.99
2019-02-22T08:44:33.589Z,7.11
2019-02-22T08:47:23.201Z,7.03
2019-02-22T08:50:14.549Z,7.14
2019-02-22T08:53:03.576Z,7.15
2019-02-22T08:55:52.767Z,7.12
2019-02-22T08:58:42.771Z,7.14
2019-02-22T09:01:32.541Z,7.16
2019-02-22T09:04:23.312Z,7.27
2019-02-22T09:07:12.855Z,7.09
2019-02-22T09:10:02.753Z,7.10
2019-02-22T09:12:52.193Z,7.04
2019-02-22T09:15:42.475Z,7.04
2019-02-22T09:18:31.923Z,7.10
2019-02-22T09:21:21.468Z,7.21
2019-02-22T09:24:13.192Z,7.15
2019-02-22T09:27:02.611Z,7.26
2019-02-22T09:29:58.794Z,7.31
2019-02-22T09:32:42.586Z,7.11
2019-02-22T09:35:32.443Z,7.26
2019-02-22T09:38:23.178Z,7.19
2019-02-22T09:41:15.911Z,7.15
2019-02-22T09:44:05.575Z,7.18
2019-02-22T09:46:55.598Z,7.06
2019-02-22T09:49:45.234Z,7.05
2019-02-22T09:52:34.807Z,7.08
2019-02-22T09:55:24.629Z,7.08
2019-02-22T09:58:13.813Z,7.06
2019-02-22T10:01:03.809Z,7.19
2019-02-22T10:03:53.072Z,7.31
2019-02-22T10:06:42.517Z,7.33
2019-02-22T10:09:31.854Z,7.39
2019-02-22T10:12:21.602Z,7.40
2019-02-22T10:15:11.633Z,7.42
2019-02-22T10:18:01.568Z,7.28
2019-02-22T10:20:50.997Z,7.42
2019-02-22T10:23:40.664Z,7.41
2019-02-22T10:26:30.189Z,7.14
2019-02-22T10:29:20.113Z,7.24
2019-02-22T10:32:09.742Z,7.24
2019-02-22T10:34:59.270Z,7.18
2019-02-22T10:37:48.773Z,7.24
2019-02-22T10:40:39.301Z,7.20
2019-02-22T10:43:29.268Z,7.08
2019-02-22T10:46:18.480Z,7.18
2019-02-22T10:49:11.474Z,7.01
2019-02-22T10:52:00.657Z,7.07
2019-02-22T10:54:50.525Z,7.17
2019-02-22T10:57:40.225Z,7.24
2019-02-22T11:00:29.641Z,7.21
2019-02-22T11:03:19.211Z,7.37
2019-02-22T11:06:08.823Z,7.37
2019-02-22T11:08:58.773Z,7.27
2019-02-22T11:11:48.297Z,7.50
2019-02-22T11:14:37.946Z,7.55
2019-02-22T11:17:27.662Z,7.58
2019-02-22T11:20:17.433Z,7.71
2019-02-22T11:23:06.821Z,7.76
2019-02-22T11:25:56.717Z,7.71
2019-02-22T11:28:46.205Z,7.63
2019-02-22T11:31:36.285Z,7.59
2019-02-22T11:34:25.708Z,7.63
2019-02-22T11:37:15.741Z,7.64
2019-02-22T11:40:05.648Z,7.66
2019-02-22T11:42:55.081Z,7.55
2019-02-22T11:45:44.314Z,7.56
2019-02-22T11:48:33.896Z,7.49
2019-02-22T11:51:23.038Z,7.27
2019-02-22T11:54:12.223Z,7.35
2019-02-22T11:57:01.679Z,7.23
2019-02-22T11:59:50.872Z,7.19
2019-02-22T12:02:40.246Z,7.13
2019-02-22T12:05:30.562Z,7.26
2019-02-22T12:08:19.789Z,7.29
2019-02-22T12:11:09.311Z,7.26
2019-02-22T12:13:58.664Z,7.53
2019-02-22T12:16:48.096Z,7.38
2019-02-22T12:19:37.287Z,7.17
2019-02-22T12:22:26.593Z,7.09
2019-02-22T12:25:15.966Z,6.88
2019-02-22T12:28:05.503Z,6.95
2019-02-22T12:30:54.948Z,6.77
2019-02-22T12:33:44.381Z,7.07
2019-02-22T12:36:34.145Z,7.16
2019-02-22T12:39:23.692Z,7.11
2019-02-22T12:42:12.882Z,7.00
2019-02-22T12:45:03.519Z,7.13
2019-02-22T12:47:53.084Z,7.11
2019-02-22T12:50:42.330Z,7.14
2019-02-22T12:53:34.515Z,7.16
2019-02-22T12:56:53.207Z,7.24
2019-02-22T12:59:15.374Z,7.18
2019-02-22T13:02:05.327Z,7.32
2019-02-22T13:04:54.586Z,7.13
2019-02-22T13:07:44.028Z,7.28
2019-02-22T13:10:33.622Z,7.03
2019-02-22T13:13:23.233Z,6.97
2019-02-22T13:16:12.439Z,6.98
2019-02-22T13:19:01.681Z,6.95
2019-02-22T13:21:51.097Z,6.84
2019-02-22T13:24:40.262Z,6.96
2019-02-22T13:27:30.103Z,6.99
2019-02-22T13:30:19.586Z,7.01
2019-02-22T13:33:09.760Z,6.78
2019-02-22T13:35:59.393Z,6.87
2019-02-22T13:38:48.936Z,6.69
2019-02-22T13:41:38.281Z,6.82
2019-02-22T13:44:27.946Z,6.70
2019-02-22T13:47:17.163Z,6.57
2019-02-22T13:50:10.367Z,6.49
2019-02-22T13:52:59.569Z,6.53
2019-02-22T13:55:49.530Z,6.52
2019-02-22T13:58:39.143Z,6.39
2019-02-22T14:01:28.611Z,6.40
2019-02-22T14:04:18.049Z,6.54
2019-02-22T14:07:07.808Z,6.64
2019-02-22T14:09:57.207Z,6.70
2019-02-22T14:12:46.698Z,6.71
2019-02-22T14:15:38.257Z,6.64
2019-02-22T14:18:28.161Z,6.59
2019-02-22T14:21:17.765Z,6.43
2019-02-22T14:24:07.774Z,6.38
2019-02-22T14:26:57.474Z,6.28
2019-02-22T14:29:47.132Z,6.21
2019-02-22T14:32:36.535Z,6.16
2019-02-22T14:35:25.933Z,6.08
2019-02-22T14:38:15.831Z,6.18
2019-02-22T14:41:05.735Z,5.50
2019-02-22T14:43:55.695Z,5.90
2019-02-22T14:46:45.160Z,5.97
2019-02-22T14:49:34.351Z,6.01
2019-02-22T14:52:23.961Z,6.12
2019-02-22T14:55:13.295Z,6.08
2019-02-22T14:58:02.717Z,6.05
2019-02-22T15:00:52.469Z,6.03
2019-02-22T15:03:41.622Z,6.22
2019-02-22T15:06:31.421Z,5.94
2019-02-22T15:09:20.645Z,5.93
2019-02-22T15:12:11.753Z,5.83
2019-02-22T15:15:01.163Z,5.80
2019-02-22T15:17:53.506Z,5.53
2019-02-22T15:20:43.478Z,5.51
2019-02-22T15:23:33.058Z,5.52
2019-02-22T15:26:22.883Z,5.46
2019-02-22T15:29:12.186Z,5.52
2019-02-22T15:32:02.088Z,5.52
2019-02-22T15:34:51.567Z,5.43
2019-02-22T15:37:43.183Z,5.28
2019-02-22T15:40:31.280Z,5.21
2019-02-22T15:43:20.795Z,5.19
2019-02-22T15:46:12.505Z,5.32
2019-02-22T15:49:00.896Z,5.38
2019-02-22T15:51:50.046Z,5.47
2019-02-22T15:54:39.166Z,5.48
2019-02-22T15:57:28.563Z,5.33
2019-02-22T16:00:21.883Z,5.23
2019-02-22T16:03:11.400Z,5.07
2019-02-22T16:06:01.165Z,5.09
2019-02-22T16:08:51.128Z,5.16
2019-02-22T16:11:41.662Z,5.02
2019-02-22T16:14:31.200Z,5.01
2019-02-22T16:17:21.529Z,4.81
2019-02-22T16:20:11.030Z,4.84
2019-02-22T16:23:00.476Z,4.69
2019-02-22T16:25:49.923Z,4.56
2019-02-22T16:28:39.141Z,4.51
2019-02-22T16:31:28.780Z,4.33
2019-02-22T16:34:18.658Z,4.36
2019-02-22T16:37:08.091Z,4.43
2019-02-22T16:39:57.215Z,4.20
2019-02-22T16:42:46.416Z,3.84
2019-02-22T16:45:35.653Z,3.75
2019-02-22T16:48:25.378Z,3.71
2019-02-22T16:51:14.622Z,3.49
2019-02-22T16:54:04.020Z,3.25
2019-02-22T16:56:53.420Z,3.49
2019-02-22T16:59:42.974Z,3.58
2019-02-22T17:02:34.683Z,3.69
2019-02-22T17:05:24.157Z,3.70
2019-02-22T17:08:13.560Z,3.49
2019-02-22T17:11:03.100Z,3.27
2019-02-22T17:13:52.269Z,3.16
2019-02-22T17:16:45.858Z,3.27
2019-02-22T17:19:32.860Z,3.21
2019-02-22T17:22:22.607Z,3.24
2019-02-22T17:25:13.240Z,3.23
2019-02-22T17:28:03.321Z,3.16
2019-02-22T17:30:52.923Z,3.07
2019-02-22T17:33:42.628Z,3.12
2019-02-22T17:36:31.814Z,3.10
2019-02-22T17:39:21.773Z,3.16
2019-02-22T17:42:11.226Z,3.20
2019-02-22T17:45:01.026Z,2.99
2019-02-22T17:47:50.614Z,2.93
2019-02-22T17:50:40.370Z,2.98
2019-02-22T17:53:30.338Z,2.97
2019-02-22T17:56:19.730Z,2.59
2019-02-22T17:59:11.343Z,2.59
2019-02-22T18:02:00.515Z,2.40
2019-02-22T18:04:49.771Z,2.50
2019-02-22T18:07:38.938Z,2.52
2019-02-22T18:10:28.576Z,2.24
2019-02-22T18:13:18.014Z,2.05
2019-02-22T18:16:07.950Z,1.93
2019-02-22T18:18:57.853Z,1.80
2019-02-22T18:21:46.970Z,2.00
2019-02-22T18:24:36.624Z,1.94
2019-02-22T18:27:25.833Z,1.89
2019-02-22T18:30:15.495Z,1.65
2019-02-22T18:33:04.825Z,1.80
2019-02-22T18:35:54.501Z,1.78
2019-02-22T18:38:44.074Z,1.93
2019-02-22T18:41:33.389Z,2.11
2019-02-22T18:44:23.212Z,2.16
2019-02-22T18:47:19.271Z,2.29
2019-02-22T18:50:03.519Z,2.28
2019-02-22T18:52:53.060Z,1.92
2019-02-22T18:55:50.146Z,1.83
2019-02-22T18:58:33.199Z,1.76
2019-02-22T19:01:22.723Z,1.89
2019-02-22T19:04:12.651Z,1.90
2019-02-22T19:07:02.536Z,1.91
2019-02-22T19:09:51.734Z,1.99
2019-02-22T19:12:41.378Z,1.70
2019-02-22T19:15:31.182Z,1.75
2019-02-22T19:18:20.319Z,1.63
2019-02-22T19:21:10.373Z,1.61
2019-02-22T19:24:00.310Z,1.54
2019-02-22T19:26:50.497Z,1.42
2019-02-22T19:29:40.065Z,0.85
2019-02-22T19:32:29.433Z,0.96
2019-02-22T19:35:18.958Z,1.30
2019-02-22T19:38:08.349Z,1.22
2019-02-22T19:40:57.906Z,1.17
2019-02-22T19:43:47.441Z,1.06
2019-02-22T19:46:37.341Z,1.05
2019-02-22T19:49:26.607Z,0.97
2019-02-22T19:52:16.790Z,0.89
2019-02-22T19:55:07.649Z,0.84
2019-02-22T19:57:57.808Z,0.95
2019-02-22T20:00:47.250Z,1.00
2019-02-22T20:03:37.203Z,1.15
2019-02-22T20:06:26.335Z,0.98
2019-02-22T20:09:16.182Z,1.12
2019-02-22T20:12:05.698Z,1.29
2019-02-22T20:14:55.490Z,0.87
2019-02-22T20:17:53.166Z,0.80
2019-02-22T20:20:35.853Z,0.70
2019-02-22T20:23:26.378Z,0.86
2019-02-22T20:26:16.677Z,0.98
2019-02-22T20:29:06.744Z,0.74
2019-02-22T20:31:55.921Z,0.51
2019-02-22T20:34:45.447Z,0.61
2019-02-22T20:37:34.835Z,0.67
2019-02-22T20:40:24.440Z,0.47
2019-02-22T20:43:13.775Z,0.57
2019-02-22T20:46:03.374Z,0.72
2019-02-22T20:49:00.570Z,0.46
2019-02-22T20:51:43.636Z,0.50
2019-02-22T20:54:32.868Z,0.44
2019-02-22T20:57:22.936Z,0.38
2019-02-22T21:00:14.688Z,0.31
2019-02-22T21:03:04.469Z,0.19
2019-02-22T21:05:53.599Z,0.11
2019-02-22T21:08:43.006Z,0.13
2019-02-22T21:11:32.410Z,0.10
2019-02-22T21:14:22.301Z,0.14
2019-02-22T21:17:11.669Z,0.17
2019-02-22T21:20:01.568Z,0.30
2019-02-22T21:22:50.824Z,0.22
2019-02-22T21:25:40.503Z,0.31
2019-02-22T21:28:29.720Z,0.26
2019-02-22T21:31:19.347Z,0.19
2019-02-22T21:34:10.930Z,-0.03
2019-02-22T21:37:00.910Z,0.01
2019-02-22T21:39:50.287Z,0.14
2019-02-22T21:42:39.936Z,0.16
2019-02-22T21:45:29.579Z,0.16
2019-02-22T21:48:27.163Z,0.12
2019-02-22T21:51:09.966Z,-0.05
2019-02-22T21:53:59.363Z,-0.12
2019-02-22T21:56:50.201Z,-0.06
2019-02-22T21:59:39.501Z,-0.11
2019-02-22T22:02:29.497Z,-0.24
2019-02-22T22:05:19.114Z,-0.35
2019-02-22T22:08:08.368Z,-0.52
2019-02-22T22:10:57.798Z,-0.61
2019-02-22T22:13:47.405Z,-0.49
2019-02-22T22:16:39.588Z,-0.52
2019-02-22T22:19:29.266Z,-0.74
2019-02-22T22:22:18.715Z,-0.75
2019-02-22T22:25:09.394Z,-0.63
2019-02-22T22:27:58.966Z,-0.57
2019-02-22T22:30:48.090Z,-0.56
2019-02-22T22:33:37.973Z,-0.61
2019-02-22T22:36:27.378Z,-0.57
2019-02-22T22:39:17.777Z,-0.61
2019-02-22T22:42:07.248Z,-0.65
2019-02-22T22:44:56.730Z,-0.90
2019-02-22T22:47:46.585Z,-0.60
2019-02-22T22:50:35.746Z,-0.83
2019-02-22T22:53:24.943Z,-0.82
2019-02-22T22:56:14.634Z,-0.95
2019-02-22T22:59:04.121Z,-0.92
2019-02-22T23:01:56.321Z,-0.89
2019-02-22T23:04:45.510Z,-0.97
2019-02-22T23:07:35.646Z,-1.01
2019-02-22T23:10:24.959Z,-1.05
2019-02-22T23:13:14.097Z,-1.14
2019-02-22T23:16:03.326Z,-1.10
2019-02-22T23:19:01.387Z,-1.07
2019-02-22T23:21:43.598Z,-1.13
2019-02-22T23:24:32.800Z,-1.15
2019-02-22T23:27:22.404Z,-1.13
2019-02-22T23:30:12.043Z,-1.31
2019-02-22T23:33:01.262Z,-1.31
2019-02-22T23:35:50.507Z,-1.28
2019-02-22T23:38:40.026Z,-1.43
2019-02-22T23:41:29.233Z,-1.52
2019-02-22T23:44:19.127Z,-1.44
2019-02-22T23:47:08.745Z,-1.54
2019-02-22T23:49:58.531Z,-1.45
2019-02-22T23:52:47.882Z,-1.51
2019-02-22T23:55:37.572Z,-1.42
2019-02-22T23:58:26.875Z,-1.42
